createdAt,value
2023-02-13T00:00:56.137Z,3.50
2023-02-13T00:03:23.842Z,2.50
2023-02-13T00:05:51.249Z,3.10
2023-02-13T00:08:18.741Z,3.60
2023-02-13T00:10:47.335Z,3.30
2023-02-13T00:13:14.853Z,3.80
2023-02-13T00:15:42.243Z,2.60
2023-02-13T00:18:09.780Z,2.70
2023-02-13T00:20:37.127Z,2.70
2023-02-13T00:23:04.583Z,2.60
2023-02-13T00:25:32.012Z,2.70
2023-02-13T00:27:59.433Z,2.80
2023-02-13T00:30:26.871Z,2.70
2023-02-13T00:32:54.371Z,2.80
2023-02-13T00:35:21.750Z,4.80
2023-02-13T00:37:49.069Z,2.80
2023-02-13T00:40:16.463Z,3.50
2023-02-13T00:42:43.782Z,4.80
2023-02-13T00:45:11.890Z,4.30
2023-02-13T00:47:39.565Z,2.70
2023-02-13T00:50:07.428Z,2.80
2023-02-13T00:52:34.851Z,2.90
2023-02-13T00:55:03.442Z,3.70
2023-02-13T00:57:32.124Z,2.70
2023-02-13T00:59:59.609Z,4.80
2023-02-13T01:02:27.047Z,3.10
2023-02-13T01:04:54.519Z,4.60
2023-02-13T01:07:22.037Z,4.60
2023-02-13T01:09:49.528Z,3.30
2023-02-13T01:12:16.827Z,3.70
2023-02-13T01:14:44.144Z,3.60
2023-02-13T01:17:11.578Z,3.80
2023-02-13T01:19:41.411Z,3.50
2023-02-13T01:22:09.343Z,4.10
2023-02-13T01:24:36.694Z,3.20
2023-02-13T01:27:04.364Z,3.50
2023-02-13T01:29:31.987Z,2.90
2023-02-13T01:31:59.509Z,3.80
2023-02-13T01:34:28.011Z,3.80
2023-02-13T01:36:56.146Z,3.20
2023-02-13T01:39:23.500Z,2.80
2023-02-13T01:41:51.008Z,2.80
2023-02-13T01:44:54.435Z,3.20
2023-02-13T01:47:45.109Z,2.90
2023-02-13T01:50:16.455Z,3.20
2023-02-13T01:52:59.136Z,3.00
2023-02-13T01:55:28.306Z,3.50
2023-02-13T01:58:02.708Z,4.60
2023-02-13T02:00:30.274Z,5.00
2023-02-13T02:03:17.299Z,4.60
2023-02-13T02:05:45.025Z,2.90
2023-02-13T02:08:14.168Z,3.60
2023-02-13T02:10:41.824Z,3.80
2023-02-13T02:13:20.669Z,3.10
2023-02-13T02:15:50.151Z,2.90
2023-02-13T02:18:20.138Z,4.60
2023-02-13T02:21:20.411Z,3.80
2023-02-13T02:24:08.990Z,2.90
2023-02-13T02:27:11.779Z,3.00
2023-02-13T02:30:11.389Z,2.90
2023-02-13T02:32:50.659Z,3.00
2023-02-13T02:35:46.567Z,2.90
2023-02-13T02:38:26.198Z,2.90
2023-02-13T02:41:33.391Z,3.50
2023-02-13T02:44:29.865Z,3.30
2023-02-13T02:47:44.636Z,2.70
2023-02-13T02:50:23.354Z,2.70
2023-02-13T02:52:57.393Z,3.40
2023-02-13T02:55:39.901Z,3.70
2023-02-13T02:58:38.058Z,3.00
2023-02-13T03:01:27.722Z,2.90
2023-02-13T03:04:16.746Z,3.00
2023-02-13T03:06:51.478Z,3.00
2023-02-13T03:09:45.991Z,2.80
2023-02-13T03:12:36.582Z,3.00
2023-02-13T03:15:05.182Z,3.60
2023-02-13T03:17:51.688Z,3.00
2023-02-13T03:21:04.131Z,4.20
2023-02-13T03:23:37.086Z,2.90
2023-02-13T03:26:22.875Z,3.00
2023-02-13T03:29:37.795Z,3.20
2023-02-13T03:37:45.611Z,3.40
2023-02-13T03:41:04.818Z,3.40
2023-02-13T03:43:47.630Z,3.40
2023-02-13T03:46:16.547Z,3.70
2023-02-13T03:49:05.306Z,4.00
2023-02-13T03:51:44.475Z,4.20
2023-02-13T03:55:00.001Z,3.90
2023-02-13T03:57:47.802Z,3.80
2023-02-13T04:00:16.701Z,4.60
2023-02-13T04:03:01.269Z,3.90
2023-02-13T04:05:33.631Z,4.80
2023-02-13T04:08:01.331Z,4.20
2023-02-13T04:10:32.923Z,5.40
2023-02-13T04:13:16.177Z,5.20
2023-02-13T04:16:10.052Z,4.60
2023-02-13T04:18:38.946Z,4.70
2023-02-13T04:21:07.941Z,5.20
2023-02-13T04:23:36.891Z,5.30
2023-02-13T04:26:09.065Z,5.60
2023-02-13T04:28:36.459Z,5.70
2023-02-13T04:31:03.973Z,5.30
2023-02-13T04:33:31.515Z,5.20
2023-02-13T04:35:58.949Z,5.50
2023-02-13T04:38:26.310Z,5.40
2023-02-13T04:40:53.811Z,5.20
2023-02-13T04:43:21.301Z,5.30
2023-02-13T04:45:49.883Z,5.60
2023-02-13T04:48:17.644Z,5.90
2023-02-13T04:50:45.008Z,5.90
2023-02-13T04:53:12.369Z,5.60
2023-02-13T04:55:39.833Z,5.30
2023-02-13T04:58:07.240Z,5.50
2023-02-13T05:00:34.628Z,5.60
2023-02-13T05:03:13.353Z,5.30
2023-02-13T05:05:40.870Z,5.50
2023-02-13T05:08:09.013Z,5.40
2023-02-13T05:10:36.807Z,5.90
2023-02-13T05:13:04.465Z,5.50
2023-02-13T05:15:32.025Z,5.90
2023-02-13T05:17:59.585Z,5.70
2023-02-13T05:20:28.449Z,6.10
2023-02-13T05:23:14.365Z,6.00
2023-02-13T05:25:42.556Z,5.80
2023-02-13T05:28:30.049Z,6.10
2023-02-13T05:30:58.724Z,6.00
2023-02-13T05:33:26.616Z,6.30
2023-02-13T05:35:54.009Z,5.80
2023-02-13T05:38:21.477Z,6.30
2023-02-13T05:40:48.861Z,6.20
2023-02-13T05:43:16.609Z,6.40
2023-02-13T05:45:44.083Z,6.30
2023-02-13T05:48:11.544Z,6.30
2023-02-13T05:50:39.285Z,6.40
2023-02-13T05:53:06.738Z,6.40
2023-02-13T05:55:34.180Z,5.90
2023-02-13T05:58:01.605Z,6.50
2023-02-13T06:00:29.154Z,6.30
2023-02-13T06:02:56.901Z,6.00
2023-02-13T06:05:24.630Z,6.30
2023-02-13T06:10:28.452Z,6.40
2023-02-13T06:12:56.081Z,6.40
2023-02-13T06:15:27.896Z,6.50
2023-02-13T06:18:13.451Z,6.80
2023-02-13T06:20:44.259Z,7.70
2023-02-13T06:23:39.768Z,6.90
2023-02-13T06:26:20.344Z,6.60
2023-02-13T06:28:51.223Z,6.50
2023-02-13T06:31:45.733Z,7.60
2023-02-13T06:34:15.519Z,6.80
2023-02-13T06:36:44.528Z,6.90
2023-02-13T06:39:26.148Z,7.20
2023-02-13T06:42:19.943Z,7.50
2023-02-13T06:44:57.758Z,7.10
2023-02-13T06:47:39.499Z,7.30
2023-02-13T06:50:36.285Z,7.20
2023-02-13T06:56:21.977Z,6.40
2023-02-13T06:58:52.113Z,7.20
2023-02-13T07:02:02.002Z,7.10
2023-02-13T07:04:30.547Z,6.50
2023-02-13T07:07:05.696Z,7.50
2023-02-13T07:09:34.288Z,6.70
2023-02-13T07:12:08.197Z,6.70
2023-02-13T07:14:52.334Z,7.30
2023-02-13T07:17:35.695Z,7.30
2023-02-13T07:22:49.716Z,7.30
2023-02-13T07:25:17.499Z,7.10
2023-02-13T07:27:56.737Z,7.90
2023-02-13T07:30:26.986Z,7.60
2023-02-13T07:32:59.201Z,7.10
2023-02-13T07:35:28.320Z,8.10
2023-02-13T07:37:58.456Z,7.60
2023-02-13T07:40:27.454Z,7.50
2023-02-13T07:42:55.488Z,7.40
2023-02-13T07:45:23.691Z,7.50
2023-02-13T07:50:47.299Z,7.60
2023-02-13T07:53:15.705Z,5.90
2023-02-13T07:55:43.919Z,7.40
2023-02-13T07:58:12.464Z,7.60
2023-02-13T08:00:45.090Z,7.60
2023-02-13T08:03:16.209Z,8.30
2023-02-13T08:08:24.806Z,7.50
2023-02-13T08:11:11.869Z,8.90
2023-02-13T08:13:39.913Z,7.40
2023-02-13T08:19:00.360Z,7.60
2023-02-13T08:21:49.290Z,7.60
2023-02-13T08:24:17.726Z,7.70
2023-02-13T08:27:01.616Z,7.90
2023-02-13T08:31:17.579Z,7.40
2023-02-13T08:33:24.642Z,7.50
2023-02-13T08:38:38.028Z,7.60
2023-02-13T08:41:14.261Z,7.90
2023-02-13T08:43:42.460Z,7.70
2023-02-13T08:46:13.057Z,7.60
2023-02-13T08:48:44.419Z,7.40
2023-02-13T08:51:16.848Z,7.40
2023-02-13T08:53:50.869Z,7.40
2023-02-13T08:57:15.424Z,7.20
2023-02-13T09:02:41.906Z,7.70
2023-02-13T09:05:09.784Z,8.20
2023-02-13T09:07:37.455Z,7.50
2023-02-13T09:10:05.723Z,7.50
2023-02-13T09:12:33.328Z,8.30
2023-02-13T09:15:03.698Z,7.00
2023-02-13T09:17:42.045Z,7.40
2023-02-13T09:20:10.765Z,7.50
2023-02-13T09:22:39.443Z,6.80
2023-02-13T09:25:07.994Z,7.50
2023-02-13T09:27:37.746Z,7.90
2023-02-13T09:30:11.105Z,7.60
2023-02-13T09:32:41.818Z,7.40
2023-02-13T09:35:09.592Z,8.50
2023-02-13T09:37:37.921Z,7.10
2023-02-13T09:40:08.875Z,6.70
2023-02-13T09:42:37.651Z,7.10
2023-02-13T09:45:07.902Z,7.40
2023-02-13T09:47:44.471Z,7.30
2023-02-13T09:50:12.987Z,7.40
2023-02-13T09:52:44.270Z,7.80
2023-02-13T09:55:19.125Z,7.90
2023-02-13T09:58:09.637Z,7.20
2023-02-13T10:00:44.238Z,7.50
2023-02-13T10:03:27.370Z,7.40
2023-02-13T10:06:03.837Z,7.10
2023-02-13T10:08:38.059Z,8.00
2023-02-13T10:11:35.627Z,7.40
2023-02-13T10:14:11.968Z,8.10
2023-02-13T10:16:51.116Z,7.80
2023-02-13T10:20:13.187Z,7.80
2023-02-13T10:26:27.564Z,7.70
2023-02-13T10:29:32.688Z,7.70
2023-02-13T10:42:36.601Z,7.80
2023-02-13T10:45:26.045Z,7.70
2023-02-13T10:48:55.286Z,8.90
2023-02-13T10:51:35.628Z,7.90
2023-02-13T10:54:22.061Z,7.50
2023-02-13T10:57:16.111Z,8.00
2023-02-13T11:00:15.687Z,8.20
2023-02-13T11:02:45.452Z,7.50
2023-02-13T11:05:22.156Z,7.70
2023-02-13T11:07:52.038Z,7.70
2023-02-13T11:10:23.542Z,7.40
2023-02-13T11:12:55.309Z,7.60
2023-02-13T11:15:43.601Z,6.70
2023-02-13T11:21:22.437Z,6.80
2023-02-13T11:23:57.323Z,7.10
2023-02-13T11:26:37.277Z,7.30
2023-02-13T11:30:41.535Z,8.50
2023-02-13T11:32:29.062Z,7.00
2023-02-13T11:35:00.127Z,7.30
2023-02-13T11:40:00.402Z,7.50
2023-02-13T11:42:28.532Z,7.50
2023-02-13T11:45:36.906Z,7.50
2023-02-13T11:48:17.470Z,8.20
2023-02-13T11:50:53.691Z,7.10
2023-02-13T11:53:27.501Z,8.60
2023-02-13T11:56:10.650Z,7.40
2023-02-13T11:58:39.964Z,7.80
2023-02-13T12:01:23.038Z,6.70
2023-02-13T12:04:19.178Z,7.00
2023-02-13T12:07:05.313Z,7.30
2023-02-13T12:09:34.629Z,7.60
2023-02-13T12:12:06.524Z,7.00
2023-02-13T12:14:43.999Z,7.00
2023-02-13T12:17:31.871Z,7.20
2023-02-13T12:20:01.341Z,7.20
2023-02-13T12:22:53.318Z,6.40
2023-02-13T12:25:28.932Z,6.80
2023-02-13T12:28:15.454Z,6.80
2023-02-13T12:30:45.728Z,6.80
2023-02-13T12:33:44.199Z,7.20
2023-02-13T12:36:32.742Z,7.00
2023-02-13T12:41:51.268Z,6.70
2023-02-13T12:44:33.129Z,6.90
2023-02-13T12:47:06.644Z,7.40
2023-02-13T12:49:49.116Z,6.90
2023-02-13T12:52:45.236Z,7.00
2023-02-13T12:55:37.065Z,7.20
2023-02-13T12:58:39.964Z,7.20
2023-02-13T13:01:26.989Z,7.40
2023-02-13T13:04:03.067Z,7.20
2023-02-13T13:06:42.049Z,7.90
2023-02-13T13:09:27.786Z,7.00
2023-02-13T13:11:55.854Z,7.00
2023-02-13T13:14:45.313Z,7.20
2023-02-13T13:17:32.193Z,7.50
2023-02-13T13:20:23.223Z,7.30
2023-02-13T13:23:11.120Z,7.80
2023-02-13T13:26:04.217Z,7.20
2023-02-13T13:28:53.582Z,7.20
2023-02-13T13:31:24.414Z,7.10
2023-02-13T13:33:52.242Z,7.20
2023-02-13T13:36:40.173Z,7.00
2023-02-13T13:40:01.122Z,6.30
2023-02-13T13:42:48.250Z,7.30
2023-02-13T13:45:34.679Z,7.00
2023-02-13T13:48:34.465Z,7.10
2023-02-13T13:51:02.591Z,7.30
2023-02-13T13:53:30.042Z,7.30
2023-02-13T13:55:58.659Z,7.20
2023-02-13T13:58:49.918Z,7.10
2023-02-13T14:01:32.384Z,6.80
2023-02-13T14:04:24.213Z,7.40
2023-02-13T14:06:51.662Z,7.20
2023-02-13T14:09:28.350Z,7.20
2023-02-13T14:11:58.600Z,6.90
2023-02-13T14:14:28.743Z,7.00
2023-02-13T14:17:02.421Z,7.00
2023-02-13T14:19:37.684Z,7.00
2023-02-13T14:22:20.380Z,6.90
2023-02-13T14:24:52.049Z,7.30
2023-02-13T14:27:37.325Z,6.60
2023-02-13T14:30:24.466Z,6.90
2023-02-13T14:32:52.750Z,6.60
2023-02-13T14:35:35.761Z,6.80
2023-02-13T14:38:08.078Z,6.90
2023-02-13T14:40:48.366Z,6.60
2023-02-13T14:43:39.189Z,6.70
2023-02-13T14:46:22.786Z,6.60
2023-02-13T14:49:06.149Z,6.40
2023-02-13T14:51:41.326Z,6.00
2023-02-13T14:54:29.803Z,6.50
2023-02-13T14:57:14.112Z,6.60
2023-02-13T14:59:47.857Z,6.60
2023-02-13T15:02:23.632Z,6.50
2023-02-13T15:05:12.440Z,6.40
2023-02-13T15:07:47.637Z,6.20
2023-02-13T15:10:41.983Z,6.60
2023-02-13T15:13:28.909Z,6.20
2023-02-13T15:16:02.292Z,6.30
2023-02-13T15:18:41.266Z,6.20
2023-02-13T15:21:17.038Z,6.30
2023-02-13T15:23:45.551Z,6.40
2023-02-13T15:26:24.037Z,6.30
2023-02-13T15:29:02.413Z,6.70
2023-02-13T15:31:36.939Z,6.30
2023-02-13T15:34:04.502Z,6.10
2023-02-13T15:36:43.004Z,6.00
2023-02-13T15:39:18.921Z,6.10
2023-02-13T15:41:50.596Z,6.00
2023-02-13T15:44:25.313Z,6.10
2023-02-13T15:46:55.260Z,6.00
2023-02-13T15:49:26.456Z,6.00
2023-02-13T15:52:09.078Z,6.00
2023-02-13T15:54:36.520Z,5.90
2023-02-13T15:57:06.927Z,5.80
2023-02-13T15:59:37.688Z,6.00
2023-02-13T16:02:11.048Z,5.80
2023-02-13T16:04:40.524Z,5.90
2023-02-13T16:07:11.818Z,5.70
2023-02-13T16:09:39.605Z,6.00
2023-02-13T16:12:34.117Z,5.90
2023-02-13T16:15:03.194Z,5.70
2023-02-13T16:17:33.339Z,5.80
2023-02-13T16:20:02.210Z,5.60
2023-02-13T16:22:47.786Z,5.60
2023-02-13T16:25:23.792Z,5.80
2023-02-13T16:28:03.087Z,5.80
2023-02-13T16:30:57.732Z,6.10
2023-02-13T16:33:30.941Z,6.30
2023-02-13T16:36:16.830Z,5.70
2023-02-13T16:38:49.265Z,5.70
2023-02-13T16:41:19.891Z,5.90
2023-02-13T16:43:48.348Z,6.10
2023-02-13T16:46:15.731Z,5.50
2023-02-13T16:48:44.776Z,5.40
2023-02-13T16:51:12.610Z,5.60
2023-02-13T16:53:40.866Z,6.20
2023-02-13T16:56:11.382Z,5.70
2023-02-13T16:58:38.917Z,5.60
2023-02-13T17:01:07.501Z,5.40
2023-02-13T17:03:34.943Z,6.00
2023-02-13T17:06:03.544Z,5.10
2023-02-13T17:08:32.443Z,4.60
2023-02-13T17:11:06.721Z,5.60
2023-02-13T17:13:34.900Z,5.50
2023-02-13T17:16:02.347Z,5.40
2023-02-13T17:18:35.886Z,5.40
2023-02-13T17:21:06.231Z,4.60
2023-02-13T17:23:33.655Z,5.30
2023-02-13T17:26:01.099Z,4.80
2023-02-13T17:28:30.420Z,5.20
2023-02-13T17:30:59.870Z,5.20
2023-02-13T17:33:34.739Z,5.70
2023-02-13T17:36:02.102Z,5.30
2023-02-13T17:38:29.580Z,5.20
2023-02-13T17:40:57.630Z,5.30
2023-02-13T17:43:27.013Z,5.70
2023-02-13T17:45:54.460Z,4.70
2023-02-13T17:48:21.888Z,5.50
2023-02-13T17:50:50.574Z,5.80
2023-02-13T17:53:32.100Z,5.60
2023-02-13T17:55:59.566Z,5.70
2023-02-13T17:58:26.913Z,4.70
2023-02-13T18:00:54.391Z,5.30
2023-02-13T18:03:22.616Z,5.00
2023-02-13T18:05:50.479Z,5.50
2023-02-13T18:08:17.833Z,5.10
2023-02-13T18:10:45.435Z,5.00
2023-02-13T18:13:12.935Z,5.20
2023-02-13T18:15:43.233Z,4.80
2023-02-13T18:18:12.803Z,5.30
2023-02-13T18:20:40.241Z,5.50
2023-02-13T18:23:08.111Z,5.40
2023-02-13T18:25:36.280Z,4.90
2023-02-13T18:28:04.685Z,5.10
2023-02-13T18:30:32.503Z,5.00
2023-02-13T18:32:59.810Z,4.80
2023-02-13T18:35:27.503Z,5.10
2023-02-13T18:37:54.983Z,5.50
2023-02-13T18:40:23.263Z,4.10
2023-02-13T18:42:52.419Z,4.70
2023-02-13T18:45:19.832Z,5.40
2023-02-13T18:47:47.194Z,5.10
2023-02-13T18:50:14.740Z,5.70
2023-02-13T18:52:42.096Z,5.40
2023-02-13T18:55:09.650Z,5.40
2023-02-13T18:57:37.175Z,5.10
2023-02-13T19:00:05.488Z,5.30
2023-02-13T19:02:33.573Z,5.00
2023-02-13T19:05:01.574Z,5.00
2023-02-13T19:07:29.338Z,5.90
2023-02-13T19:09:57.022Z,4.90
2023-02-13T19:12:24.785Z,5.50
2023-02-13T19:14:52.268Z,5.60
2023-02-13T19:17:19.705Z,5.60
2023-02-13T19:19:48.987Z,4.90
2023-02-13T19:22:16.684Z,5.80
2023-02-13T19:24:44.350Z,5.50
2023-02-13T19:27:11.782Z,5.10
2023-02-13T19:29:39.359Z,5.10
2023-02-13T19:32:06.834Z,5.70
2023-02-13T19:34:34.824Z,4.90
2023-02-13T19:37:02.264Z,5.30
2023-02-13T19:39:29.635Z,5.30
2023-02-13T19:41:57.563Z,5.00
2023-02-13T19:44:25.174Z,5.20
2023-02-13T19:46:52.653Z,5.00
2023-02-13T19:49:22.441Z,5.10
2023-02-13T19:51:49.944Z,5.00
2023-02-13T19:54:17.270Z,5.60
2023-02-13T19:56:44.831Z,5.00
2023-02-13T19:59:13.700Z,5.40
2023-02-13T20:01:43.119Z,5.30
2023-02-13T20:04:11.230Z,5.10
2023-02-13T20:06:39.059Z,5.30
2023-02-13T20:09:10.309Z,5.10
2023-02-13T20:11:38.413Z,5.10
2023-02-13T20:14:06.028Z,5.30
2023-02-13T20:16:37.121Z,5.40
2023-02-13T20:19:11.820Z,4.70
2023-02-13T20:21:41.566Z,5.00
2023-02-13T20:24:10.573Z,5.20
2023-02-13T20:26:38.968Z,4.80
2023-02-13T20:29:06.795Z,5.50
2023-02-13T20:31:34.537Z,5.30
2023-02-13T20:34:02.800Z,4.70
2023-02-13T20:36:31.505Z,5.10
2023-02-13T20:39:01.749Z,5.30
2023-02-13T20:41:32.454Z,5.30
2023-02-13T20:44:07.836Z,4.90
2023-02-13T20:46:38.737Z,4.50
2023-02-13T20:49:06.531Z,5.30
2023-02-13T20:51:34.577Z,5.00
2023-02-13T20:54:02.264Z,5.20
2023-02-13T20:56:29.808Z,4.60
2023-02-13T20:58:59.263Z,5.50
2023-02-13T21:01:37.413Z,5.30
2023-02-13T21:04:04.921Z,4.70
2023-02-13T21:06:37.765Z,5.20
2023-02-13T21:09:07.052Z,4.70
2023-02-13T21:11:36.018Z,5.30
2023-02-13T21:14:06.019Z,5.10
2023-02-13T21:16:36.566Z,5.40
2023-02-13T21:19:08.505Z,5.50
2023-02-13T21:21:37.412Z,4.60
2023-02-13T21:24:08.410Z,4.60
2023-02-13T21:26:36.422Z,5.40
2023-02-13T21:29:04.847Z,4.60
2023-02-13T21:31:35.933Z,5.00
2023-02-13T21:34:08.565Z,5.30
2023-02-13T21:36:36.868Z,4.90
2023-02-13T21:39:05.877Z,5.50
2023-02-13T21:41:33.989Z,5.30
2023-02-13T21:44:01.408Z,5.60
2023-02-13T21:46:31.551Z,4.70
2023-02-13T21:49:04.580Z,5.30
2023-02-13T21:51:34.771Z,5.00
2023-02-13T21:54:04.020Z,4.00
2023-02-13T21:56:33.884Z,5.40
2023-02-13T21:59:01.369Z,5.10
2023-02-13T22:01:35.172Z,5.20
2023-02-13T22:04:09.763Z,4.90
2023-02-13T22:06:39.445Z,4.90
2023-02-13T22:09:12.567Z,4.90
2023-02-13T22:11:41.031Z,4.40
2023-02-13T22:14:12.975Z,4.90
2023-02-13T22:16:40.539Z,4.50
2023-02-13T22:19:08.131Z,4.10
2023-02-13T22:21:36.759Z,5.40
2023-02-13T22:24:04.609Z,4.30
2023-02-13T22:26:34.647Z,4.30
2023-02-13T22:29:05.069Z,4.80
2023-02-13T22:31:32.936Z,4.40
2023-02-13T22:34:05.035Z,4.20
2023-02-13T22:36:35.149Z,4.60
2023-02-13T22:39:02.686Z,4.90
2023-02-13T22:41:30.613Z,5.10
2023-02-13T22:43:58.138Z,4.10
2023-02-13T22:46:27.946Z,4.60
2023-02-13T22:48:55.716Z,4.90
2023-02-13T22:51:33.199Z,4.60
2023-02-13T22:54:01.246Z,4.00
2023-02-13T22:56:30.485Z,3.60
2023-02-13T22:58:58.826Z,4.60
2023-02-13T23:01:28.215Z,4.40
2023-02-13T23:03:56.291Z,3.80
2023-02-13T23:06:23.867Z,3.60
2023-02-13T23:08:53.931Z,3.60
2023-02-13T23:11:45.834Z,5.30
2023-02-13T23:14:13.976Z,4.90
2023-02-13T23:17:05.391Z,3.70
2023-02-13T23:19:32.770Z,4.00
2023-02-13T23:22:01.297Z,4.20
2023-02-13T23:24:30.445Z,4.10
2023-02-13T23:26:59.039Z,3.70
2023-02-13T23:29:27.202Z,4.10
2023-02-13T23:31:54.971Z,3.30
2023-02-13T23:34:23.137Z,3.20
2023-02-13T23:36:50.417Z,3.60
2023-02-13T23:39:17.888Z,3.70
2023-02-13T23:41:45.544Z,3.40
2023-02-13T23:44:12.887Z,3.20
2023-02-13T23:46:40.272Z,3.20
2023-02-13T23:49:07.718Z,3.10
2023-02-13T23:51:35.320Z,4.00
2023-02-13T23:54:02.791Z,3.20
2023-02-13T23:56:30.442Z,3.00
2023-02-13T23:58:57.813Z,3.10
